Airfield :
LOGIN :

Register | Disclaimer

   EN    FR    IT 

 










Legend :    VFR   Marginal VFR   IFR   Intensive IFR   Very Intensive IFR
Visi :
Ceiling :
>= 8 km
>= 3000ft
5 to 8 km
1000 to 3000 ft
1500m to 5 km
500 to 1000 ft
800 to 1500m
200 to 500 ft
< 800m
< 200 ft
Symbols :   Thunderstorms  Fog  Heavy snow  Heavy precipitations  Wind > 20 kt
SIGMETs :     Misc.  Thunderstorms  Icing  Turbulence  Mountain Waves  Volcanic Ashes






- Airport Elevation : 49 ft
- IATA code : SEN


EGMC - Southend

CURRENT METAR :
  • 050820Z 17008KT 9999 FEW013 18/14 Q1008

EXPIRED METARs :
  • 050750Z 19007KT 9999 FEW013 18/15 Q1008
  • 050720Z 21004KT CAVOK 16/14 Q1009
  • 050650Z 21004KT CAVOK 16/14 Q1009
  • 050620Z 21005KT CAVOK 14/13 Q1009
  • 050550Z 21004KT CAVOK 14/13 Q1009

TAF TAF EGMC
Valid from the 05 at 09:00 until the 05 at 18:00 UTC


050758Z 0509/0518 19012KT 9999 FEW030
PROB30
TEMPO 0514/0516 7000 RA SHRA
TEMPO 0516/0518 RA SHRA BKN010



MET'MAP, your aeronautical weather chart ! - Copyright ORBIFLY December 2007 - Disclaimer

ORBIFLY MET'MAP TEAM :

Programming & Development : Alexandra Zaïnal
Concept & original design : Baudouin d'Aumeries
Assistance for programming : Marc-Olivier Méhu
Technical & hardware support : Manuel Goepfert

Contact : metmap@orbifly.com




SOURCES & CREDITS :

   NOAA